createdAt,value
2022-10-15T00:01:29.499Z,48.08
2022-10-15T00:03:56.605Z,51.03
2022-10-15T00:06:23.606Z,47.33
2022-10-15T00:08:50.564Z,55.53
2022-10-15T00:11:21.198Z,52.90
2022-10-15T00:13:48.727Z,48.55
2022-10-15T00:16:21.106Z,51.72
2022-10-15T00:18:48.792Z,49.23
2022-10-15T00:21:20.338Z,49.03
2022-10-15T00:23:48.775Z,54.95
2022-10-15T00:26:22.619Z,54.70
2022-10-15T00:28:51.307Z,55.03
2022-10-15T00:31:21.023Z,52.85
2022-10-15T00:33:53.272Z,55.90
2022-10-15T00:36:24.190Z,52.38
2022-10-15T00:38:52.239Z,51.00
2022-10-15T00:41:32.723Z,52.05
2022-10-15T00:44:21.789Z,54.65
2022-10-15T00:46:55.948Z,55.72
2022-10-15T00:49:40.408Z,54.20
2022-10-15T00:52:21.709Z,54.53
2022-10-15T00:54:57.926Z,51.07
2022-10-15T00:57:25.718Z,55.50
2022-10-15T00:59:58.357Z,53.58
2022-10-15T01:02:25.853Z,50.37
2022-10-15T01:04:53.696Z,49.80
2022-10-15T01:07:20.691Z,58.35
2022-10-15T01:09:48.023Z,52.30
2022-10-15T01:12:55.061Z,58.17
2022-10-15T01:15:31.790Z,54.27
2022-10-15T01:18:46.120Z,62.70
2022-10-15T01:21:54.716Z,51.33
2022-10-15T01:24:42.918Z,60.03
2022-10-15T01:27:29.520Z,55.10
2022-10-15T01:30:25.874Z,54.60
2022-10-15T01:33:31.862Z,57.28
2022-10-15T01:36:23.368Z,59.57
2022-10-15T01:39:18.916Z,59.57
2022-10-15T01:41:54.374Z,59.27
2022-10-15T01:44:42.648Z,57.00
2022-10-15T01:47:44.462Z,59.63
2022-10-15T01:50:13.654Z,51.93
2022-10-15T01:52:42.173Z,61.63
2022-10-15T01:55:14.765Z,58.27
2022-10-15T01:57:45.012Z,58.40
2022-10-15T02:00:12.819Z,58.73
2022-10-15T02:02:41.999Z,55.70
2022-10-15T02:05:20.466Z,61.13
2022-10-15T02:08:13.344Z,60.33
2022-10-15T02:11:20.003Z,53.73
2022-10-15T02:14:10.621Z,54.23
2022-10-15T02:17:08.357Z,53.20
2022-10-15T02:19:52.110Z,58.50
2022-10-15T02:22:32.272Z,55.60
2022-10-15T02:25:06.942Z,51.67
2022-10-15T02:27:36.024Z,52.60
2022-10-15T02:30:08.224Z,59.27
2022-10-15T02:32:39.071Z,58.00
2022-10-15T02:35:10.549Z,58.20
2022-10-15T02:37:42.900Z,52.60
2022-10-15T02:40:10.854Z,54.07
2022-10-15T02:42:37.975Z,51.38
2022-10-15T02:45:05.599Z,54.50
2022-10-15T02:47:32.779Z,56.50
2022-10-15T02:49:59.783Z,55.50
2022-10-15T02:52:26.812Z,49.33
2022-10-15T02:54:53.808Z,54.63
2022-10-15T02:57:20.901Z,54.77
2022-10-15T02:59:48.092Z,56.97
2022-10-15T03:02:16.964Z,52.93
2022-10-15T03:04:46.510Z,54.97
2022-10-15T03:07:14.257Z,54.13
2022-10-15T03:09:41.176Z,52.50
2022-10-15T03:12:08.614Z,52.70
2022-10-15T03:14:35.543Z,53.50
2022-10-15T03:17:02.483Z,51.93
2022-10-15T03:19:29.482Z,47.23
2022-10-15T03:21:56.399Z,57.50
2022-10-15T03:24:23.302Z,53.57
2022-10-15T03:26:50.269Z,58.23
2022-10-15T03:29:17.151Z,49.57
2022-10-15T03:31:44.079Z,50.90
2022-10-15T03:34:11.046Z,60.50
2022-10-15T03:36:37.979Z,60.47
2022-10-15T03:39:05.925Z,54.83
2022-10-15T03:41:32.922Z,55.07
2022-10-15T03:44:05.726Z,56.80
2022-10-15T03:46:33.553Z,56.83
2022-10-15T03:49:01.550Z,56.33
2022-10-15T03:51:31.426Z,52.17
2022-10-15T03:53:58.810Z,56.57
2022-10-15T03:56:25.803Z,53.07
2022-10-15T03:58:52.735Z,55.67
2022-10-15T04:01:19.852Z,53.83
2022-10-15T04:03:47.042Z,56.83
2022-10-15T04:06:13.986Z,53.27
2022-10-15T04:08:40.976Z,49.17
2022-10-15T04:11:07.947Z,57.97
2022-10-15T04:13:34.911Z,53.03
2022-10-15T04:16:05.631Z,54.33
2022-10-15T04:18:33.101Z,51.33
2022-10-15T04:21:01.420Z,52.23
2022-10-15T04:23:28.539Z,58.93
2022-10-15T04:26:00.374Z,48.70
2022-10-15T04:28:28.609Z,45.93
2022-10-15T04:30:59.668Z,49.03
2022-10-15T04:33:27.694Z,50.20
2022-10-15T04:36:09.099Z,53.83
2022-10-15T04:38:36.129Z,56.30
2022-10-15T04:41:10.539Z,46.17
2022-10-15T04:43:38.599Z,47.20
2022-10-15T04:46:08.823Z,50.87
2022-10-15T04:48:40.493Z,51.60
2022-10-15T04:51:16.968Z,54.38
2022-10-15T04:53:44.368Z,51.10
2022-10-15T04:56:17.842Z,48.83
2022-10-15T04:58:47.701Z,46.20
2022-10-15T05:01:21.139Z,50.20
2022-10-15T05:03:49.195Z,47.03
2022-10-15T05:06:21.977Z,48.97
2022-10-15T05:08:49.938Z,47.87
2022-10-15T05:11:26.402Z,53.33
2022-10-15T05:13:55.906Z,48.00
2022-10-15T05:16:29.220Z,51.10
2022-10-15T05:19:00.363Z,41.67
2022-10-15T05:21:27.981Z,49.20
2022-10-15T05:23:55.073Z,44.55
2022-10-15T05:26:25.493Z,42.45
2022-10-15T05:28:53.230Z,45.30
2022-10-15T05:31:22.747Z,43.07
2022-10-15T05:33:52.051Z,46.92
2022-10-15T05:36:24.849Z,45.50
2022-10-15T05:38:58.073Z,44.78
2022-10-15T05:41:26.556Z,41.67
2022-10-15T05:43:56.127Z,46.13
2022-10-15T05:46:23.579Z,41.33
2022-10-15T05:48:56.225Z,47.78
2022-10-15T05:51:25.829Z,43.58
2022-10-15T05:53:57.369Z,44.17
2022-10-15T05:56:26.036Z,39.88
2022-10-15T05:58:52.979Z,47.45
2022-10-15T06:01:20.188Z,40.38
2022-10-15T06:03:47.282Z,41.58
2022-10-15T06:06:26.550Z,43.17
2022-10-15T06:08:55.288Z,42.17
2022-10-15T06:11:22.935Z,40.17
2022-10-15T06:13:49.962Z,39.20
2022-10-15T06:16:21.121Z,40.90
2022-10-15T06:18:53.573Z,42.30
2022-10-15T06:21:20.998Z,41.17
2022-10-15T06:23:47.961Z,38.47
2022-10-15T06:26:14.875Z,41.00
2022-10-15T06:28:41.982Z,42.72
2022-10-15T06:31:09.337Z,38.30
2022-10-15T06:33:36.899Z,37.78
2022-10-15T06:36:09.712Z,36.78
2022-10-15T06:38:37.552Z,40.60
2022-10-15T06:41:06.585Z,38.47
2022-10-15T06:43:35.222Z,41.90
2022-10-15T06:46:06.384Z,41.00
2022-10-15T06:48:33.835Z,40.55
2022-10-15T06:51:02.235Z,34.33
2022-10-15T06:53:30.273Z,38.92
2022-10-15T06:56:03.032Z,35.83
2022-10-15T06:58:30.386Z,34.75
2022-10-15T07:01:06.045Z,36.75
2022-10-15T07:03:33.470Z,37.67
2022-10-15T07:06:06.515Z,33.05
2022-10-15T07:08:34.070Z,31.52
2022-10-15T07:11:06.278Z,33.47
2022-10-15T07:13:33.467Z,34.30
2022-10-15T07:16:07.932Z,39.53
2022-10-15T07:18:35.784Z,33.20
2022-10-15T07:21:05.137Z,32.50
2022-10-15T07:23:32.576Z,36.03
2022-10-15T07:26:01.195Z,33.83
2022-10-15T07:28:28.470Z,31.38
2022-10-15T07:30:59.639Z,30.38
2022-10-15T07:33:26.613Z,31.70
2022-10-15T07:35:53.554Z,36.63
2022-10-15T07:38:20.548Z,27.48
2022-10-15T07:40:47.565Z,28.05
2022-10-15T07:43:16.025Z,29.20
2022-10-15T07:45:48.389Z,31.13
2022-10-15T07:48:15.429Z,29.08
2022-10-15T07:50:42.447Z,32.80
2022-10-15T07:53:09.719Z,32.53
2022-10-15T07:55:36.655Z,29.70
2022-10-15T07:58:05.813Z,32.35
2022-10-15T08:03:05.766Z,35.97
2022-10-15T08:05:33.745Z,33.17
2022-10-15T08:08:00.850Z,42.83
2022-10-15T08:10:28.382Z,27.73
2022-10-15T08:12:55.302Z,31.63
2022-10-15T08:15:22.185Z,31.98
2022-10-15T08:17:49.137Z,35.30
2022-10-15T08:20:16.106Z,32.22
2022-10-15T08:22:43.027Z,29.45
2022-10-15T08:25:10.062Z,30.42
2022-10-15T08:27:37.702Z,29.35
2022-10-15T08:30:05.294Z,31.20
2022-10-15T08:32:32.265Z,30.98
2022-10-15T08:34:59.171Z,30.38
2022-10-15T08:37:26.115Z,30.95
2022-10-15T08:39:53.131Z,28.60
2022-10-15T08:42:37.415Z,29.75
2022-10-15T08:45:19.397Z,29.83
2022-10-15T08:47:57.077Z,31.55
2022-10-15T08:51:05.415Z,32.17
2022-10-15T08:53:54.072Z,28.67
2022-10-15T08:56:45.752Z,30.40
2022-10-15T08:59:39.755Z,29.33
2022-10-15T09:02:26.810Z,34.25
2022-10-15T09:05:03.448Z,34.15
2022-10-15T09:08:11.488Z,30.48
2022-10-15T09:11:00.436Z,28.45
2022-10-15T09:13:42.354Z,30.45
2022-10-15T09:16:22.492Z,31.17
2022-10-15T09:18:53.300Z,30.42
2022-10-15T09:21:27.984Z,31.33
2022-10-15T09:24:18.443Z,33.38
2022-10-15T09:27:28.150Z,29.00
2022-10-15T09:30:31.137Z,33.20
2022-10-15T09:33:12.833Z,28.33
2022-10-15T09:35:53.138Z,30.65
2022-10-15T09:38:45.523Z,33.47
2022-10-15T09:41:18.259Z,28.80
2022-10-15T09:43:50.389Z,29.08
2022-10-15T09:46:17.648Z,30.88
2022-10-15T09:48:53.529Z,36.28
2022-10-15T09:52:03.220Z,31.50
2022-10-15T09:55:08.885Z,29.75
2022-10-15T09:57:37.744Z,32.63
2022-10-15T10:00:13.698Z,32.63
2022-10-15T10:02:41.091Z,30.33
2022-10-15T10:05:33.412Z,35.67
2022-10-15T10:08:24.767Z,31.13
2022-10-15T10:11:01.596Z,39.28
2022-10-15T10:13:46.234Z,27.20
2022-10-15T10:16:15.828Z,34.42
2022-10-15T10:18:50.474Z,30.80
2022-10-15T10:21:31.322Z,30.40
2022-10-15T10:24:35.852Z,31.52
2022-10-15T10:27:06.388Z,30.17
2022-10-15T10:29:40.599Z,26.20
2022-10-15T10:32:22.469Z,24.55
2022-10-15T10:34:52.802Z,25.63
2022-10-15T10:37:20.816Z,27.75
2022-10-15T10:39:54.827Z,25.90
2022-10-15T10:42:32.752Z,28.58
2022-10-15T10:45:22.784Z,23.77
2022-10-15T10:47:50.217Z,27.55
2022-10-15T10:50:34.606Z,27.42
2022-10-15T10:53:24.214Z,27.75
2022-10-15T10:55:55.259Z,24.02
2022-10-15T10:58:27.092Z,21.60
2022-10-15T11:00:55.758Z,22.38
2022-10-15T11:03:38.415Z,26.10
2022-10-15T11:06:23.563Z,24.45
2022-10-15T11:09:05.951Z,21.88
2022-10-15T11:12:04.404Z,24.30
2022-10-15T11:15:01.652Z,26.27
2022-10-15T11:17:40.854Z,24.75
2022-10-15T11:20:36.240Z,21.05
2022-10-15T11:24:09.356Z,26.35
2022-10-15T11:27:11.379Z,19.42
2022-10-15T11:29:41.606Z,22.48
2022-10-15T11:32:54.614Z,23.48
2022-10-15T11:35:59.292Z,21.42
2022-10-15T11:38:46.077Z,19.95
2022-10-15T11:42:09.118Z,21.25
2022-10-15T11:45:26.608Z,23.05
2022-10-15T11:47:53.426Z,27.15
2022-10-15T11:50:40.021Z,19.55
2022-10-15T11:53:37.001Z,25.17
2022-10-15T11:56:38.751Z,23.38
2022-10-15T11:59:40.797Z,16.23
2022-10-15T12:02:22.280Z,21.13
2022-10-15T12:04:59.058Z,22.10
2022-10-15T12:07:42.804Z,24.15
2022-10-15T12:10:12.716Z,22.95
2022-10-15T12:13:16.876Z,22.05
2022-10-15T12:16:16.335Z,19.35
2022-10-15T12:19:04.932Z,20.05
2022-10-15T12:21:56.473Z,21.00
2022-10-15T12:24:38.364Z,20.45
2022-10-15T12:27:20.016Z,25.30
2022-10-15T12:30:13.366Z,20.33
2022-10-15T12:32:44.104Z,17.08
2022-10-15T12:35:23.901Z,22.85
2022-10-15T12:37:51.480Z,18.77
2022-10-15T12:40:21.437Z,21.73
2022-10-15T12:43:01.595Z,19.27
2022-10-15T12:46:00.152Z,23.33
2022-10-15T12:48:36.449Z,24.05
2022-10-15T12:51:21.850Z,22.75
2022-10-15T12:53:51.276Z,20.77
2022-10-15T12:56:18.093Z,25.58
2022-10-15T12:58:53.673Z,18.35
2022-10-15T13:01:20.662Z,20.90
2022-10-15T13:03:50.660Z,17.10
2022-10-15T13:06:20.608Z,23.48
2022-10-15T13:09:12.305Z,22.45
2022-10-15T13:14:42.721Z,27.40
2022-10-15T13:17:21.730Z,17.92
2022-10-15T13:20:08.058Z,27.17
2022-10-15T13:22:36.844Z,20.80
2022-10-15T13:25:04.260Z,21.48
2022-10-15T13:27:35.652Z,21.80
2022-10-15T13:30:15.828Z,21.20
2022-10-15T13:32:52.480Z,18.02
2022-10-15T13:35:29.119Z,24.92
2022-10-15T13:37:58.138Z,18.30
2022-10-15T13:40:31.449Z,23.00
2022-10-15T13:43:15.719Z,18.42
2022-10-15T13:45:57.545Z,21.45
2022-10-15T13:48:28.544Z,20.80
2022-10-15T13:50:59.906Z,20.73
2022-10-15T13:53:37.593Z,21.95
2022-10-15T13:56:25.461Z,20.35
2022-10-15T13:58:53.760Z,22.02
2022-10-15T14:01:24.260Z,21.40
2022-10-15T14:03:55.307Z,28.90
2022-10-15T14:06:31.329Z,21.48
2022-10-15T14:09:19.161Z,18.23
2022-10-15T14:11:46.478Z,19.77
2022-10-15T14:14:46.753Z,17.60
2022-10-15T14:17:26.336Z,25.73
2022-10-15T14:20:26.917Z,23.92
2022-10-15T14:22:49.896Z,19.63
2022-10-15T14:25:24.965Z,21.45
2022-10-15T14:27:52.733Z,19.05
2022-10-15T14:30:33.108Z,22.13
2022-10-15T14:33:00.206Z,22.67
2022-10-15T14:35:35.823Z,20.48
2022-10-15T14:38:09.720Z,19.13
2022-10-15T14:40:37.114Z,19.50
2022-10-15T14:43:19.692Z,23.00
2022-10-15T14:45:52.446Z,23.00
2022-10-15T14:48:43.637Z,18.02
2022-10-15T14:51:27.025Z,23.75
2022-10-15T14:53:54.450Z,21.25
2022-10-15T14:56:32.058Z,27.17
2022-10-15T14:59:01.163Z,25.00
2022-10-15T15:01:30.427Z,22.30
2022-10-15T15:03:57.394Z,27.60
2022-10-15T15:06:24.402Z,21.90
2022-10-15T15:08:51.480Z,18.88
2022-10-15T15:11:22.874Z,21.52
2022-10-15T15:13:51.539Z,24.20
2022-10-15T15:16:19.056Z,19.98
2022-10-15T15:18:48.339Z,20.08
2022-10-15T15:21:21.648Z,22.70
2022-10-15T15:23:49.138Z,18.92
2022-10-15T15:26:16.086Z,19.75
2022-10-15T15:28:43.110Z,21.80
2022-10-15T15:31:18.882Z,22.85
2022-10-15T15:33:46.072Z,19.70
2022-10-15T15:36:22.526Z,25.48
2022-10-15T15:38:50.825Z,23.23
2022-10-15T15:41:20.848Z,23.63
2022-10-15T15:43:48.451Z,22.45
2022-10-15T15:46:16.179Z,20.45
2022-10-15T15:48:43.450Z,29.20
2022-10-15T15:51:28.972Z,24.98
2022-10-15T15:53:57.067Z,22.48
2022-10-15T15:56:24.620Z,22.90
2022-10-15T15:58:51.978Z,21.35
2022-10-15T16:01:20.305Z,23.58
2022-10-15T16:03:47.505Z,18.83
2022-10-15T16:06:14.536Z,24.20
2022-10-15T16:08:41.590Z,18.58
2022-10-15T16:11:08.575Z,28.45
2022-10-15T16:13:35.576Z,21.00
2022-10-15T16:16:02.870Z,22.63
2022-10-15T16:18:29.896Z,23.60
2022-10-15T16:20:56.873Z,23.27
2022-10-15T16:23:23.852Z,26.98
2022-10-15T16:25:50.780Z,31.85
2022-10-15T16:28:17.763Z,24.55
2022-10-15T16:30:44.699Z,28.73
2022-10-15T16:33:11.733Z,31.88
2022-10-15T16:35:38.710Z,31.02
2022-10-15T16:38:05.739Z,28.48
2022-10-15T16:40:33.627Z,25.35
2022-10-15T16:43:00.930Z,29.17
2022-10-15T16:45:27.874Z,22.00
2022-10-15T16:47:54.827Z,27.75
2022-10-15T16:50:21.870Z,25.05
2022-10-15T16:52:48.903Z,24.27
2022-10-15T16:55:16.866Z,24.63
2022-10-15T16:57:44.469Z,22.70
2022-10-15T17:00:12.152Z,25.05
2022-10-15T17:02:39.258Z,26.27
2022-10-15T17:05:06.889Z,29.15
2022-10-15T17:07:33.913Z,21.20
2022-10-15T17:10:01.074Z,22.50
2022-10-15T17:12:28.398Z,25.70
2022-10-15T17:14:55.537Z,26.52
2022-10-15T17:17:22.641Z,29.23
2022-10-15T17:19:49.615Z,28.80
2022-10-15T17:22:16.570Z,26.27
2022-10-15T17:24:43.903Z,31.85
2022-10-15T17:27:10.841Z,31.45
2022-10-15T17:29:38.262Z,25.83
2022-10-15T17:32:05.330Z,23.38
2022-10-15T17:34:32.417Z,25.70
2022-10-15T17:36:59.423Z,32.83
2022-10-15T17:39:26.447Z,25.38
2022-10-15T17:41:53.489Z,29.90
2022-10-15T17:44:20.666Z,25.65
2022-10-15T17:49:19.536Z,33.25
2022-10-15T17:51:47.288Z,25.75
2022-10-15T17:54:14.461Z,35.72
2022-10-15T17:56:41.644Z,32.63
2022-10-15T17:59:11.711Z,32.78
2022-10-15T18:01:59.249Z,32.30
2022-10-15T18:04:28.817Z,31.98
2022-10-15T18:06:55.897Z,34.10
2022-10-15T18:09:22.852Z,33.35
2022-10-15T18:11:49.845Z,31.52
2022-10-15T18:14:17.936Z,32.58
2022-10-15T18:16:45.888Z,32.67
2022-10-15T18:19:13.013Z,30.85
2022-10-15T18:21:39.961Z,28.00
2022-10-15T18:24:06.990Z,28.40
2022-10-15T18:26:33.937Z,30.17
2022-10-15T18:29:00.863Z,30.92
2022-10-15T18:31:28.232Z,28.65
2022-10-15T18:33:56.170Z,29.60
2022-10-15T18:36:25.930Z,33.25
2022-10-15T18:38:53.440Z,29.80
2022-10-15T18:41:28.179Z,33.08
2022-10-15T18:44:14.764Z,31.05
2022-10-15T18:46:43.977Z,30.60
2022-10-15T18:49:13.130Z,44.20
2022-10-15T18:51:40.197Z,40.20
2022-10-15T18:54:08.716Z,37.70
2022-10-15T18:56:35.800Z,35.65
2022-10-15T18:59:02.720Z,33.17
2022-10-15T19:01:41.951Z,32.10
2022-10-15T19:04:15.357Z,28.23
2022-10-15T19:06:46.526Z,31.15
2022-10-15T19:09:23.095Z,30.50
2022-10-15T19:11:54.600Z,29.90
2022-10-15T19:14:23.610Z,27.88
2022-10-15T19:16:51.397Z,30.73
2022-10-15T19:19:21.132Z,33.28
2022-10-15T19:21:50.073Z,31.95
2022-10-15T19:24:19.179Z,33.15
2022-10-15T19:26:47.188Z,29.58
2022-10-15T19:29:14.294Z,33.78
2022-10-15T19:31:44.315Z,31.00
2022-10-15T19:34:12.306Z,30.98
2022-10-15T19:36:43.521Z,36.42
2022-10-15T19:39:17.692Z,29.92
2022-10-15T19:41:45.857Z,29.67
2022-10-15T19:44:16.864Z,30.95
2022-10-15T19:46:43.913Z,51.50
2022-10-15T19:49:13.209Z,36.78
2022-10-15T19:51:40.619Z,34.42
2022-10-15T19:54:07.632Z,31.33
2022-10-15T19:56:34.815Z,32.55
2022-10-15T19:59:04.308Z,30.35
2022-10-15T20:01:32.118Z,28.45
2022-10-15T20:04:04.874Z,33.85
2022-10-15T20:06:36.017Z,29.15
2022-10-15T20:09:03.384Z,31.80
2022-10-15T20:11:30.444Z,29.33
2022-10-15T20:13:59.737Z,29.38
2022-10-15T20:16:27.611Z,38.58
2022-10-15T20:18:58.700Z,32.75
2022-10-15T20:21:25.607Z,32.67
2022-10-15T20:23:52.583Z,31.40
2022-10-15T20:26:19.492Z,40.15
2022-10-15T20:28:46.859Z,33.47
2022-10-15T20:31:24.999Z,30.83
2022-10-15T20:33:51.921Z,33.17
2022-10-15T20:36:22.781Z,32.13
2022-10-15T20:38:52.038Z,33.00
2022-10-15T20:41:19.786Z,34.40
2022-10-15T20:43:51.266Z,72.20
2022-10-15T20:46:37.109Z,38.25
2022-10-15T20:49:23.036Z,39.42
2022-10-15T20:51:50.852Z,73.57
2022-10-15T20:54:19.125Z,41.10
2022-10-15T20:56:46.368Z,39.88
2022-10-15T20:59:13.320Z,41.63
2022-10-15T21:01:40.433Z,67.72
2022-10-15T21:04:07.436Z,41.45
2022-10-15T21:06:34.374Z,62.08
2022-10-15T21:09:01.471Z,45.35
2022-10-15T21:11:28.540Z,39.55
2022-10-15T21:13:55.533Z,39.03
2022-10-15T21:16:25.893Z,36.63
2022-10-15T21:18:55.305Z,58.67
2022-10-15T21:21:22.214Z,35.72
2022-10-15T21:23:49.226Z,29.92
2022-10-15T21:26:18.013Z,35.15
2022-10-15T21:28:47.762Z,36.67
2022-10-15T21:31:17.807Z,26.50
2022-10-15T21:33:46.068Z,38.83
2022-10-15T21:36:22.384Z,27.17
2022-10-15T21:39:01.005Z,25.38
2022-10-15T21:41:31.408Z,30.35
2022-10-15T21:44:00.174Z,27.20
2022-10-15T21:46:28.111Z,24.70
2022-10-15T21:48:55.211Z,26.98
2022-10-15T21:51:26.150Z,26.83
2022-10-15T21:53:55.341Z,27.73
2022-10-15T21:56:22.960Z,24.58
2022-10-15T21:58:50.099Z,23.05
2022-10-15T22:01:21.871Z,27.50
2022-10-15T22:03:51.261Z,25.02
2022-10-15T22:06:19.907Z,22.05
2022-10-15T22:08:47.850Z,26.42
2022-10-15T22:11:22.305Z,26.52
2022-10-15T22:13:56.435Z,35.42
2022-10-15T22:16:25.671Z,25.83
2022-10-15T22:18:53.279Z,24.42
2022-10-15T22:21:36.522Z,30.63
2022-10-15T22:24:12.107Z,23.13
2022-10-15T22:26:43.039Z,24.27
2022-10-15T22:29:31.707Z,23.83
2022-10-15T22:32:01.593Z,23.65
2022-10-15T22:34:28.603Z,26.00
2022-10-15T22:36:55.650Z,25.20
2022-10-15T22:39:22.588Z,23.55
2022-10-15T22:41:49.620Z,20.17
2022-10-15T22:44:20.101Z,24.40
2022-10-15T22:46:49.400Z,26.00
2022-10-15T22:49:21.535Z,22.75
2022-10-15T22:51:49.841Z,20.92
2022-10-15T22:54:19.252Z,22.00
2022-10-15T22:56:47.395Z,23.58
2022-10-15T22:59:15.473Z,21.20
2022-10-15T23:01:43.026Z,24.90
2022-10-15T23:04:13.934Z,21.88
2022-10-15T23:06:41.377Z,21.70
2022-10-15T23:09:10.894Z,24.02
2022-10-15T23:11:40.215Z,20.75
2022-10-15T23:14:14.530Z,20.17
2022-10-15T23:16:45.291Z,20.83
2022-10-15T23:19:20.707Z,20.20
2022-10-15T23:21:55.457Z,24.67
2022-10-15T23:24:26.110Z,21.55
2022-10-15T23:26:53.553Z,21.02
2022-10-15T23:29:24.031Z,21.58
2022-10-15T23:31:52.291Z,20.67
2022-10-15T23:34:23.055Z,17.40
2022-10-15T23:36:50.507Z,20.50
2022-10-15T23:39:21.829Z,21.80
2022-10-15T23:41:49.156Z,23.70
2022-10-15T23:44:16.132Z,19.70
2022-10-15T23:46:43.592Z,19.13
2022-10-15T23:49:10.926Z,19.48
2022-10-15T23:51:38.491Z,23.75
2022-10-15T23:54:16.321Z,18.63
2022-10-15T23:56:44.195Z,18.00
2022-10-15T23:59:11.934Z,26.90
